Time;durP1;ratioP1;P1;durP2;ratioP2;P2;SDS_P1;SDS_P2;PMS_P1;PMS_P2;Temp;Humidity;BMP_temperature;BMP_pressure;BME280_temperature;BME280_humidity;BME280_pressure;Samples;Min_cycle;Max_cycle;Signal;HPM_P1;HPM_P2
2023/04/03 00:02:17;;;;;;;5.03;2.00;;;1.80;1.00;;;;;;4898719;29;20332;-77
2023/04/03 00:04:44;;;;;;;3.83;1.70;;;1.80;1.00;;;;;;4904318;29;20246;-79
2023/04/03 00:07:12;;;;;;;4.97;1.58;;;1.80;1.00;;;;;;4893950;29;20249;-78
2023/04/03 00:09:40;;;;;;;3.00;1.80;;;1.80;1.00;;;;;;4899825;29;20257;-78
2023/04/03 00:12:07;;;;;;;4.15;1.60;;;1.70;1.00;;;;;;4901484;29;20332;-78
2023/04/03 00:14:34;;;;;;;6.28;2.03;;;1.70;1.00;;;;;;4902955;29;20727;-78
2023/04/03 00:17:01;;;;;;;4.07;1.98;;;1.70;1.00;;;;;;4902283;29;20246;-78
2023/04/03 00:19:28;;;;;;;4.38;1.70;;;1.60;1.00;;;;;;4899790;29;20243;-77
2023/04/03 00:21:55;;;;;;;4.57;1.52;;;1.60;1.00;;;;;;4902128;29;20247;-78
2023/04/03 00:24:22;;;;;;;4.07;1.80;;;1.60;1.00;;;;;;4901235;29;20246;-78
2023/04/03 00:26:51;;;;;;;5.07;1.73;;;1.60;1.00;;;;;;4903200;29;20239;-78
2023/04/03 00:29:17;;;;;;;5.90;1.95;;;1.60;1.00;;;;;;4888152;29;20234;-78
2023/04/03 00:31:45;;;;;;;3.67;1.65;;;1.60;1.00;;;;;;4895039;29;20393;-78
2023/04/03 00:34:12;;;;;;;7.28;2.33;;;1.60;1.00;;;;;;4900755;29;20242;-78
2023/04/03 00:36:39;;;;;;;4.43;2.55;;;1.60;1.00;;;;;;4901758;29;20346;-78
2023/04/03 00:39:06;;;;;;;4.22;1.75;;;1.60;1.00;;;;;;4898043;28;20246;-78
2023/04/03 00:41:33;;;;;;;5.93;2.00;;;1.60;1.00;;;;;;4905431;29;21893;-79
2023/04/03 00:44:02;;;;;;;6.28;1.80;;;1.60;1.00;;;;;;4904369;29;20317;-79
2023/04/03 00:46:29;;;;;;;6.38;1.92;;;1.50;1.00;;;;;;4899844;29;20243;-78
2023/04/03 00:48:56;;;;;;;4.28;2.13;;;1.50;1.00;;;;;;4899311;29;20935;-79
2023/04/03 00:51:26;;;;;;;4.18;1.80;;;1.50;1.00;;;;;;4899438;29;20800;-78
2023/04/03 00:53:56;;;;;;;4.00;1.75;;;1.50;1.00;;;;;;4901668;29;20242;-78
2023/04/03 00:56:26;;;;;;;3.15;1.38;;;1.50;1.00;;;;;;4907424;29;20305;-78
2023/04/03 00:58:56;;;;;;;4.78;2.22;;;1.50;1.00;;;;;;4905395;29;20238;-77
2023/04/03 01:01:26;;;;;;;6.78;1.85;;;1.60;1.00;;;;;;4908076;29;20689;-80
2023/04/03 01:03:57;;;;;;;5.63;2.00;;;1.60;1.00;;;;;;4911972;23;20244;-78
2023/04/03 01:06:28;;;;;;;7.15;2.20;;;1.60;1.00;;;;;;4929222;28;20288;-77
2023/04/03 01:08:56;;;;;;;2.97;1.25;;;1.60;1.00;;;;;;4928086;28;20250;-77
2023/04/03 01:11:23;;;;;;;6.43;1.77;;;1.60;1.00;;;;;;4930285;28;20335;-77
2023/04/03 01:13:50;;;;;;;6.25;1.73;;;1.60;1.00;;;;;;4933168;28;20249;-76
2023/04/03 01:16:19;;;;;;;5.28;1.70;;;1.60;1.00;;;;;;4927241;28;21142;-76
2023/04/03 01:18:48;;;;;;;4.60;1.80;;;1.60;1.00;;;;;;4929545;28;20222;-77
2023/04/03 01:21:37;;;;;;;5.05;1.88;;;1.60;1.00;;;;;;4928822;28;20245;-77
2023/04/03 01:24:32;;;;;;;5.20;1.55;;;1.60;1.00;;;;;;4927859;28;20298;-76
2023/04/03 01:27:00;;;;;;;7.30;2.15;;;1.70;1.00;;;;;;4922440;28;20245;-77
2023/04/03 01:29:27;;;;;;;2.40;1.60;;;1.70;1.00;;;;;;4929202;28;21094;-77
2023/04/03 01:31:57;;;;;;;3.63;1.60;;;1.70;1.00;;;;;;4928372;28;20325;-77
2023/04/03 01:34:25;;;;;;;4.10;1.80;;;1.70;1.00;;;;;;4927838;28;21097;-76
2023/04/03 01:36:53;;;;;;;4.15;2.30;;;1.70;1.00;;;;;;4929819;28;20717;-77
2023/04/03 01:39:20;;;;;;;4.93;2.00;;;1.70;1.00;;;;;;4923865;28;20249;-77
2023/04/03 01:41:47;;;;;;;5.18;2.10;;;1.70;1.00;;;;;;4926746;28;21058;-78
2023/04/03 01:44:16;;;;;;;5.53;1.90;;;1.70;1.00;;;;;;4931848;28;20238;-77
2023/04/03 01:46:43;;;;;;;5.00;1.83;;;1.70;1.00;;;;;;4927430;28;20332;-77
2023/04/03 01:49:12;;;;;;;5.78;1.80;;;1.70;1.00;;;;;;4926545;28;20261;-76
2023/04/03 01:51:39;;;;;;;4.22;2.00;;;1.70;1.00;;;;;;4930047;28;20337;-77
2023/04/03 01:54:06;;;;;;;4.88;1.80;;;1.60;1.00;;;;;;4922537;28;20248;-78
2023/04/03 01:56:33;;;;;;;3.88;1.30;;;1.50;1.00;;;;;;4931727;28;20323;-77
2023/04/03 01:59:00;;;;;;;7.85;2.53;;;1.60;1.00;;;;;;4928464;28;20249;-77
2023/04/03 02:01:27;;;;;;;2.90;1.55;;;1.50;1.00;;;;;;4930577;28;21079;-77
2023/04/03 02:03:54;;;;;;;7.32;1.85;;;1.50;1.00;;;;;;4921300;28;20277;-77
2023/04/03 02:06:22;;;;;;;6.25;1.92;;;1.50;1.00;;;;;;4906767;29;20336;-78
2023/04/03 02:08:49;;;;;;;9.90;2.55;;;1.40;1.00;;;;;;4909624;29;20722;-77
2023/04/03 02:11:16;;;;;;;6.28;2.20;;;1.50;1.00;;;;;;4907541;29;20285;-76
2023/04/03 02:13:43;;;;;;;3.97;1.60;;;1.40;1.00;;;;;;4905744;29;20241;-78
2023/04/03 02:16:12;;;;;;;5.38;2.30;;;1.40;1.00;;;;;;4907797;29;20242;-78
2023/04/03 02:18:39;;;;;;;3.95;1.80;;;1.40;1.00;;;;;;4909768;29;20266;-77
2023/04/03 02:21:06;;;;;;;4.55;2.03;;;1.40;1.00;;;;;;4905276;29;20920;-77
2023/04/03 02:23:35;;;;;;;4.85;1.80;;;1.40;1.00;;;;;;4912462;29;20293;-77
2023/04/03 02:26:11;;;;;;;6.90;1.88;;;1.40;1.00;;;;;;4910959;29;20714;-77
2023/04/03 02:28:38;;;;;;;5.95;2.65;;;1.40;1.00;;;;;;4905824;29;20729;-78
2023/04/03 02:31:07;;;;;;;6.90;2.70;;;1.40;1.00;;;;;;4903715;29;21024;-76
2023/04/03 02:33:36;;;;;;;8.85;2.35;;;1.40;1.00;;;;;;4909774;29;20314;-77
2023/04/03 02:36:04;;;;;;;4.90;2.65;;;1.40;1.00;;;;;;4915726;29;20246;-77
2023/04/03 02:38:32;;;;;;;7.53;2.38;;;1.30;1.00;;;;;;4912071;29;20242;-76
2023/04/03 02:41:03;;;;;;;6.35;2.42;;;1.30;1.00;;;;;;4913624;29;20318;-76
2023/04/03 02:43:30;;;;;;;5.50;1.92;;;1.30;1.00;;;;;;4914869;29;20744;-76
2023/04/03 02:45:57;;;;;;;6.97;2.25;;;1.30;1.00;;;;;;4914336;29;20330;-78
2023/04/03 02:48:25;;;;;;;5.22;2.28;;;1.30;1.00;;;;;;4912690;29;20277;-77
2023/04/03 02:50:52;;;;;;;6.00;2.25;;;1.30;1.00;;;;;;4912686;29;20246;-77
2023/04/03 02:53:20;;;;;;;10.52;2.42;;;1.30;1.00;;;;;;4906430;29;20825;-76
2023/04/03 02:55:47;;;;;;;5.43;1.88;;;1.30;1.00;;;;;;4917054;29;20282;-76
2023/04/03 02:58:15;;;;;;;5.10;2.28;;;1.30;1.00;;;;;;4909450;29;20708;-77
2023/04/03 03:00:45;;;;;;;4.80;2.35;;;1.30;1.00;;;;;;4912509;29;20249;-76
2023/04/03 03:03:13;;;;;;;7.88;2.65;;;1.30;1.00;;;;;;4908346;29;20270;-77
2023/04/03 03:05:40;;;;;;;6.70;3.22;;;1.30;1.00;;;;;;4932855;28;20787;-76
2023/04/03 03:08:07;;;;;;;5.40;1.73;;;1.30;1.00;;;;;;4921073;28;20248;-77
2023/04/03 03:10:34;;;;;;;6.07;2.10;;;1.30;1.00;;;;;;4933203;28;20309;-77
2023/04/03 03:13:01;;;;;;;5.90;2.15;;;1.20;1.00;;;;;;4933958;28;20273;-78
2023/04/03 03:15:29;;;;;;;5.55;2.10;;;1.20;1.00;;;;;;4931269;28;21190;-77
2023/04/03 03:17:56;;;;;;;6.80;2.95;;;1.20;1.00;;;;;;4940744;28;20298;-76
2023/04/03 03:20:23;;;;;;;8.65;2.50;;;1.20;1.00;;;;;;4929650;28;21166;-77
2023/04/03 03:22:50;;;;;;;8.68;2.22;;;1.10;1.00;;;;;;4934579;28;21103;-77
2023/04/03 03:25:17;;;;;;;5.82;2.70;;;1.10;1.00;;;;;;4930851;28;20438;-77
2023/04/03 03:27:44;;;;;;;5.57;2.90;;;1.10;1.00;;;;;;4930769;28;21104;-77
2023/04/03 03:30:12;;;;;;;6.30;2.30;;;1.10;1.00;;;;;;4928215;28;20245;-76
2023/04/03 03:32:40;;;;;;;4.28;2.38;;;1.00;1.00;;;;;;4935102;28;20237;-77
2023/04/03 03:35:08;;;;;;;5.20;2.20;;;0.90;1.00;;;;;;4930756;28;20241;-77
2023/04/03 03:37:35;;;;;;;8.85;2.25;;;1.00;1.00;;;;;;4930356;28;20241;-78
2023/04/03 03:40:02;;;;;;;9.57;2.67;;;0.90;1.00;;;;;;4932604;28;20293;-76
2023/04/03 03:42:29;;;;;;;4.00;2.85;;;0.90;1.00;;;;;;4932771;28;20243;-77
2023/04/03 03:44:57;;;;;;;7.05;2.90;;;0.80;1.00;;;;;;4934171;28;20280;-78
2023/04/03 03:47:24;;;;;;;5.30;2.50;;;0.90;1.00;;;;;;4931244;28;20244;-78
2023/04/03 03:49:52;;;;;;;7.20;3.40;;;0.90;1.00;;;;;;4929858;28;20237;-77
2023/04/03 03:52:19;;;;;;;4.82;2.65;;;0.90;1.00;;;;;;4930903;28;20245;-78
2023/04/03 03:54:46;;;;;;;7.80;2.42;;;0.80;1.00;;;;;;4926326;28;20280;-78
2023/04/03 03:57:13;;;;;;;7.50;2.45;;;0.80;1.00;;;;;;4930616;28;20443;-78
2023/04/03 03:59:41;;;;;;;6.25;2.75;;;0.80;1.00;;;;;;4928880;28;20944;-77
2023/04/03 04:02:09;;;;;;;4.68;2.78;;;0.80;1.00;;;;;;4925306;28;20328;-77
2023/04/03 04:04:36;;;;;;;8.02;4.05;;;0.80;1.00;;;;;;4914556;28;21077;-78
2023/04/03 04:07:04;;;;;;;3.80;2.33;;;0.80;1.00;;;;;;4907092;29;20317;-78
2023/04/03 04:09:33;;;;;;;4.85;2.63;;;0.70;1.00;;;;;;4912108;29;20242;-79
2023/04/03 04:12:00;;;;;;;5.43;3.00;;;0.70;1.00;;;;;;4907651;29;20922;-77
2023/04/03 04:14:30;;;;;;;4.95;2.53;;;0.70;1.00;;;;;;4910106;29;20245;-79
2023/04/03 04:16:56;;;;;;;7.38;2.70;;;0.70;1.00;;;;;;4908866;29;20249;-78
2023/04/03 04:19:23;;;;;;;6.82;2.50;;;0.70;1.00;;;;;;4908538;29;22481;-78
2023/04/03 04:21:51;;;;;;;4.85;2.75;;;0.80;1.00;;;;;;4912306;29;20725;-78
2023/04/03 04:24:19;;;;;;;6.10;2.72;;;0.80;1.00;;;;;;4913886;29;21024;-80
2023/04/03 04:26:46;;;;;;;5.47;2.50;;;0.70;1.00;;;;;;4920107;29;20265;-79
2023/04/03 04:29:13;;;;;;;9.95;2.90;;;0.80;1.00;;;;;;4920209;29;20266;-78
2023/04/03 04:31:41;;;;;;;6.70;4.20;;;0.80;1.00;;;;;;4914548;29;20242;-78
2023/04/03 04:34:08;;;;;;;5.60;3.00;;;0.80;1.00;;;;;;4910715;29;20237;-78
2023/04/03 04:36:34;;;;;;;8.25;3.35;;;0.80;1.00;;;;;;4914305;29;20242;-77
2023/04/03 04:39:03;;;;;;;7.35;3.58;;;0.70;1.00;;;;;;4911850;29;20328;-78
2023/04/03 04:41:31;;;;;;;6.15;2.90;;;0.70;1.00;;;;;;4919186;29;20238;-77
2023/04/03 04:43:58;;;;;;;6.55;3.05;;;0.70;1.00;;;;;;4914631;29;20254;-77
2023/04/03 04:46:25;;;;;;;6.22;3.00;;;0.70;1.00;;;;;;4916351;29;20246;-79
2023/04/03 04:48:52;;;;;;;11.63;2.75;;;0.70;1.00;;;;;;4910058;29;20275;-78
2023/04/03 04:51:20;;;;;;;5.78;2.50;;;0.70;1.00;;;;;;4900418;29;20393;-78
2023/04/03 04:53:47;;;;;;;7.28;2.83;;;0.80;1.00;;;;;;4917041;29;21129;-77
2023/04/03 04:56:14;;;;;;;5.10;2.58;;;0.80;1.00;;;;;;4912512;29;20249;-79
2023/04/03 04:58:43;;;;;;;6.63;3.05;;;0.80;1.00;;;;;;4910797;29;20236;-78
2023/04/03 05:01:11;;;;;;;6.90;3.00;;;0.80;1.00;;;;;;4911470;29;20341;-78
2023/04/03 05:03:38;;;;;;;11.55;2.92;;;0.80;1.00;;;;;;4907584;29;20254;-79
2023/04/03 05:06:05;;;;;;;7.10;3.08;;;0.80;1.00;;;;;;4910008;29;20346;-79
2023/04/03 05:08:33;;;;;;;8.88;3.63;;;0.70;1.00;;;;;;4907609;29;20252;-79
2023/04/03 05:11:00;;;;;;;11.07;3.13;;;0.80;1.00;;;;;;4911795;29;20302;-78
2023/04/03 05:13:27;;;;;;;6.40;3.72;;;0.80;1.00;;;;;;4913705;29;20245;-78
2023/04/03 05:15:55;;;;;;;7.55;2.30;;;0.90;1.00;;;;;;4907764;29;21109;-78
2023/04/03 05:18:22;;;;;;;5.75;2.85;;;0.90;1.00;;;;;;4912386;29;20310;-78
2023/04/03 05:20:50;;;;;;;7.32;4.20;;;0.90;1.00;;;;;;4913915;29;21179;-78
2023/04/03 05:23:20;;;;;;;8.95;4.63;;;1.00;1.00;;;;;;4911870;29;20746;-79
2023/04/03 05:25:48;;;;;;;6.82;3.13;;;1.00;1.00;;;;;;4914157;29;20249;-78
2023/04/03 05:28:16;;;;;;;6.38;3.22;;;1.00;1.00;;;;;;4913289;29;20261;-77
2023/04/03 05:30:43;;;;;;;7.13;3.60;;;1.10;1.00;;;;;;4913590;29;20242;-76
2023/04/03 05:33:13;;;;;;;7.70;2.80;;;1.20;1.00;;;;;;4908585;29;20342;-77
2023/04/03 05:35:41;;;;;;;5.95;2.55;;;1.20;1.00;;;;;;4910979;29;20660;-78
2023/04/03 05:38:09;;;;;;;6.13;2.88;;;1.30;1.00;;;;;;4910200;29;20246;-79
2023/04/03 05:40:36;;;;;;;10.57;4.38;;;1.40;1.00;;;;;;4913392;29;20279;-79
2023/04/03 05:43:03;;;;;;;5.20;3.35;;;1.50;1.00;;;;;;4910717;29;20246;-79
2023/04/03 05:45:30;;;;;;;8.00;2.97;;;1.50;1.00;;;;;;4912891;29;20282;-80
2023/04/03 05:47:57;;;;;;;11.75;4.28;;;1.60;1.00;;;;;;4914454;29;21094;-80
2023/04/03 05:50:26;;;;;;;8.25;3.13;;;1.80;1.00;;;;;;4902647;29;20241;-81
2023/04/03 05:52:56;;;;;;;9.70;6.65;;;1.80;1.00;;;;;;4912863;29;20256;-80
2023/04/03 05:55:23;;;;;;;32.88;20.90;;;2.00;1.00;;;;;;4913679;29;20243;-80
2023/04/03 05:57:50;;;;;;;5.20;3.45;;;2.00;1.00;;;;;;4914107;29;20281;-78
2023/04/03 06:00:18;;;;;;;8.88;2.92;;;2.10;1.00;;;;;;4910143;29;20238;-79
2023/04/03 06:02:45;;;;;;;9.10;2.88;;;2.20;1.00;;;;;;4908221;29;20258;-77
2023/04/03 06:05:12;;;;;;;8.18;2.80;;;2.30;1.00;;;;;;4907364;29;20245;-78
2023/04/03 06:07:41;;;;;;;5.40;2.90;;;2.50;1.00;;;;;;4901143;29;20242;-78
2023/04/03 06:10:09;;;;;;;7.03;3.40;;;2.60;1.00;;;;;;4907368;29;20249;-78
2023/04/03 06:12:36;;;;;;;5.95;2.75;;;2.60;1.00;;;;;;4910877;29;20340;-77
2023/04/03 06:15:03;;;;;;;7.05;4.25;;;2.70;1.00;;;;;;4914802;29;20323;-77
2023/04/03 06:17:31;;;;;;;6.18;3.15;;;2.80;1.00;;;;;;4908191;29;20702;-77
2023/04/03 06:20:54;;;;;;;5.65;2.83;;;2.90;1.00;;;;;;4913921;29;20758;-80
2023/04/03 06:23:23;;;;;;;8.10;2.03;;;2.90;1.00;;;;;;4889865;29;20318;-79
2023/04/03 06:25:50;;;;;;;5.07;1.80;;;3.00;1.00;;;;;;4905366;29;20234;-77
2023/04/03 06:28:19;;;;;;;9.25;3.80;;;3.10;1.00;;;;;;4909130;29;20241;-77
2023/04/03 06:30:45;;;;;;;6.10;2.60;;;3.10;1.00;;;;;;4907690;29;20345;-77
2023/04/03 06:33:13;;;;;;;5.55;2.50;;;3.20;1.00;;;;;;4904976;29;20726;-79
2023/04/03 06:35:40;;;;;;;5.10;2.58;;;3.20;1.00;;;;;;4912470;29;20256;-77
2023/04/03 06:38:11;;;;;;;10.23;6.20;;;3.30;1.00;;;;;;4908935;29;20245;-77
2023/04/03 06:40:40;;;;;;;5.63;2.08;;;3.40;1.00;;;;;;4912077;29;20248;-78
2023/04/03 06:43:07;;;;;;;6.20;2.38;;;3.50;1.00;;;;;;4910156;28;20705;-78
2023/04/03 06:45:34;;;;;;;5.05;2.50;;;3.60;1.00;;;;;;4913872;29;20251;-78
2023/04/03 06:48:01;;;;;;;4.70;1.88;;;3.70;1.00;;;;;;4905710;29;20246;-77
2023/04/03 06:50:28;;;;;;;7.13;2.58;;;3.80;1.00;;;;;;4911700;29;20244;-78
2023/04/03 06:52:55;;;;;;;4.30;2.03;;;3.80;1.00;;;;;;4911240;29;20336;-76
2023/04/03 06:55:22;;;;;;;7.28;3.40;;;4.00;1.00;;;;;;4908348;29;20293;-78
2023/04/03 06:57:50;;;;;;;4.50;2.20;;;4.10;1.00;;;;;;4913141;29;20242;-76
2023/04/03 07:00:19;;;;;;;3.45;1.80;;;4.10;1.00;;;;;;4906387;29;20341;-78
2023/04/03 07:02:46;;;;;;;8.68;2.00;;;4.20;1.00;;;;;;4901947;29;20249;-78
2023/04/03 07:05:14;;;;;;;4.65;2.15;;;4.20;1.00;;;;;;4908759;29;20234;-79
2023/04/03 07:07:41;;;;;;;5.13;2.15;;;4.20;1.00;;;;;;4911998;29;20237;-78
2023/04/03 07:10:11;;;;;;;3.40;1.58;;;4.30;1.00;;;;;;4899888;28;21093;-75
2023/04/03 07:12:37;;;;;;;8.65;3.08;;;4.40;1.00;;;;;;4916582;29;20285;-78
2023/04/03 07:15:16;;;;;;;9.98;2.22;;;4.40;1.00;;;;;;4910299;29;20325;-76
2023/04/03 07:17:43;;;;;;;3.17;1.75;;;4.50;1.00;;;;;;4911160;29;20324;-76
2023/04/03 07:20:11;;;;;;;6.53;2.28;;;4.60;1.00;;;;;;4909373;29;20245;-77
2023/04/03 07:22:38;;;;;;;5.25;1.90;;;4.70;1.00;;;;;;4910978;29;20242;-77
2023/04/03 07:25:07;;;;;;;6.93;2.17;;;4.90;1.00;;;;;;4912165;29;20242;-77
2023/04/03 07:27:35;;;;;;;4.47;1.50;;;5.20;1.00;;;;;;4911409;29;20245;-76
2023/04/03 07:30:02;;;;;;;3.58;2.13;;;5.20;1.00;;;;;;4913720;29;20365;-77
2023/04/03 07:32:31;;;;;;;4.18;1.98;;;5.40;1.00;;;;;;4912457;29;20238;-75
2023/04/03 07:34:59;;;;;;;3.67;1.80;;;5.60;1.00;;;;;;4914293;29;20310;-78
2023/04/03 07:37:29;;;;;;;9.82;1.70;;;5.70;1.00;;;;;;4912976;29;20246;-79
2023/04/03 07:39:57;;;;;;;4.07;2.00;;;5.80;1.00;;;;;;4917523;29;21059;-78
2023/04/03 07:42:24;;;;;;;5.53;1.88;;;5.90;1.00;;;;;;4912491;29;20265;-79
2023/04/03 07:44:51;;;;;;;8.35;1.80;;;5.70;1.00;;;;;;4912734;29;20324;-78
2023/04/03 07:47:18;;;;;;;5.22;1.77;;;5.70;1.00;;;;;;4905984;29;20241;-77
2023/04/03 07:49:48;;;;;;;3.80;1.90;;;5.50;1.00;;;;;;4909272;29;21089;-77
2023/04/03 07:52:15;;;;;;;3.45;1.77;;;5.50;1.00;;;;;;4915070;29;20293;-77
2023/04/03 07:54:42;;;;;;;4.43;1.80;;;5.60;1.00;;;;;;4910171;29;20243;-78
2023/04/03 07:57:09;;;;;;;4.80;2.10;;;5.50;1.00;;;;;;4905995;29;20336;-79
2023/04/03 07:59:36;;;;;;;3.60;1.65;;;5.70;1.00;;;;;;4918431;29;20243;-78
2023/04/03 08:02:04;;;;;;;2.95;1.70;;;5.90;1.00;;;;;;4913147;29;20306;-80
2023/04/03 08:04:32;;;;;;;4.30;1.63;;;5.90;1.00;;;;;;4917636;28;20345;-80
2023/04/03 08:07:01;;;;;;;6.65;2.30;;;6.10;1.00;;;;;;4916702;29;20238;-80
2023/04/03 08:09:27;;;;;;;4.15;2.00;;;6.60;1.00;;;;;;4913307;29;20730;-79
2023/04/03 08:11:54;;;;;;;5.28;1.75;;;7.10;1.00;;;;;;4909832;29;20290;-79
2023/04/03 08:14:22;;;;;;;2.10;1.50;;;7.40;1.00;;;;;;4915451;29;20323;-78
2023/04/03 08:16:49;;;;;;;4.43;1.90;;;7.30;1.00;;;;;;4910606;29;20525;-80
2023/04/03 08:19:51;;;;;;;5.38;1.88;;;7.10;1.00;;;;;;4914020;29;20468;-81
2023/04/03 08:22:20;;;;;;;4.57;1.95;;;7.00;1.00;;;;;;4899494;28;20247;-79
2023/04/03 08:24:48;;;;;;;4.40;1.88;;;7.00;1.00;;;;;;4911518;29;20242;-78
2023/04/03 08:27:15;;;;;;;6.25;2.17;;;7.10;1.00;;;;;;4913772;29;20245;-80
2023/04/03 08:29:43;;;;;;;2.28;1.55;;;6.90;1.00;;;;;;4915650;29;20834;-80
2023/04/03 08:32:10;;;;;;;5.30;2.00;;;6.60;1.00;;;;;;4907861;29;21663;-79
2023/04/03 08:34:39;;;;;;;3.58;1.92;;;6.70;1.00;;;;;;4910906;29;20334;-80
2023/04/03 08:37:08;;;;;;;2.85;1.50;;;6.90;1.00;;;;;;4909056;29;21149;-79
2023/04/03 08:39:37;;;;;;;6.60;1.75;;;7.00;1.00;;;;;;4914318;29;20247;-79
2023/04/03 08:42:14;;;;;;;3.15;1.83;;;7.10;1.00;;;;;;4911007;29;20328;-80
2023/04/03 08:44:48;;;;;;;3.13;1.83;;;7.00;1.00;;;;;;4906734;29;20357;-82
2023/04/03 08:47:25;;;;;;;3.92;1.40;;;6.90;1.00;;;;;;4904636;29;20374;-78
2023/04/03 08:49:54;;;;;;;3.53;1.95;;;6.80;1.00;;;;;;4901661;29;20249;-79
2023/04/03 08:52:28;;;;;;;7.63;2.40;;;6.80;1.00;;;;;;4909165;29;21225;-76
2023/04/03 08:55:01;;;;;;;6.50;3.00;;;6.50;1.00;;;;;;4906789;29;20440;-76
2023/04/03 08:57:32;;;;;;;3.25;1.83;;;6.30;1.00;;;;;;4908616;29;20251;-78
2023/04/03 09:00:02;;;;;;;2.83;1.40;;;6.50;1.00;;;;;;4908158;29;20259;-78
2023/04/03 09:02:36;;;;;;;3.22;2.63;;;6.70;1.00;;;;;;4914777;29;20249;-78
2023/04/03 09:05:11;;;;;;;3.00;1.73;;;6.80;1.00;;;;;;4907465;28;20249;-79
2023/04/03 09:07:45;;;;;;;4.60;1.95;;;7.10;1.00;;;;;;4898612;29;20246;-78
2023/04/03 09:10:15;;;;;;;3.95;1.92;;;7.60;1.00;;;;;;4908818;29;20253;-79
2023/04/03 09:12:47;;;;;;;3.43;2.00;;;8.00;1.00;;;;;;4912619;29;20268;-78
2023/04/03 09:15:20;;;;;;;4.13;1.70;;;8.10;1.00;;;;;;4910401;29;21212;-78
2023/04/03 09:17:58;;;;;;;4.35;2.42;;;8.20;1.00;;;;;;4911393;29;20548;-78
2023/04/03 09:20:40;;;;;;;3.03;1.75;;;7.90;1.00;;;;;;4912707;29;20242;-79
2023/04/03 09:23:19;;;;;;;2.90;1.52;;;7.70;1.00;;;;;;4905396;29;20795;-77
2023/04/03 09:25:51;;;;;;;4.00;1.50;;;8.20;1.00;;;;;;4917860;29;21214;-76
2023/04/03 09:28:19;;;;;;;2.77;1.40;;;9.30;1.00;;;;;;4908662;29;21356;-76
2023/04/03 09:30:46;;;;;;;2.73;1.73;;;10.00;1.00;;;;;;4905442;29;20462;-76
2023/04/03 09:33:15;;;;;;;2.13;1.53;;;10.40;1.00;;;;;;4909479;29;20460;-78
2023/04/03 09:35:42;;;;;;;2.50;1.40;;;11.10;1.00;;;;;;4910724;29;20495;-77
2023/04/03 09:38:20;;;;;;;4.50;2.10;;;12.30;1.00;;;;;;4909140;29;20584;-77
2023/04/03 09:40:50;;;;;;;2.43;1.70;;;12.40;1.00;;;;;;4905407;29;20522;-77
2023/04/03 09:43:27;;;;;;;2.83;1.40;;;11.70;1.00;;;;;;4906947;29;20990;-78
2023/04/03 09:45:55;;;;;;;2.17;1.90;;;11.10;1.00;;;;;;4911779;29;20477;-76
2023/04/03 09:48:23;;;;;;;3.50;1.40;;;10.60;1.00;;;;;;4910993;29;20561;-75
2023/04/03 09:50:58;;;;;;;2.87;1.90;;;10.30;1.00;;;;;;4907312;29;20550;-78
2023/04/03 09:53:31;;;;;;;2.70;1.60;;;10.50;1.00;;;;;;4908885;29;20458;-78
2023/04/03 09:56:03;;;;;;;3.00;1.80;;;10.40;1.00;;;;;;4908634;29;20474;-76
2023/04/03 09:58:34;;;;;;;2.30;1.60;;;9.90;1.00;;;;;;4910272;29;21931;-78
2023/04/03 10:01:02;;;;;;;3.60;2.10;;;9.50;1.00;;;;;;4910828;29;20459;-78
2023/04/03 10:03:31;;;;;;;3.60;1.63;;;9.50;1.00;;;;;;4901886;29;20422;-78
2023/04/03 10:05:59;;;;;;;2.93;1.63;;;9.70;1.00;;;;;;4912324;29;20566;-77
2023/04/03 10:08:29;;;;;;;6.80;2.40;;;10.70;1.00;;;;;;4913805;29;20478;-78
2023/04/03 10:11:18;;;;;;;4.43;1.93;;;11.80;1.00;;;;;;4911389;29;21013;-77
2023/04/03 10:13:55;;;;;;;2.60;2.07;;;11.70;1.00;;;;;;4907667;29;20915;-77
2023/04/03 10:16:40;;;;;;;1.97;1.53;;;11.50;1.00;;;;;;4885929;29;20483;-78
2023/04/03 10:19:31;;;;;;;4.63;1.93;;;10.80;1.00;;;;;;4904178;29;20501;-78
2023/04/03 10:22:03;;;;;;;3.93;1.50;;;10.30;1.00;;;;;;4912433;29;20998;-80
2023/04/03 10:24:40;;;;;;;4.57;1.90;;;10.10;1.00;;;;;;4909431;29;20446;-78
2023/04/03 10:27:14;;;;;;;3.33;1.97;;;9.90;1.00;;;;;;4909574;29;20457;-80
2023/04/03 10:29:51;;;;;;;2.10;1.47;;;9.60;1.00;;;;;;4909419;29;20470;-79
2023/04/03 10:32:43;;;;;;;3.90;2.00;;;9.40;1.00;;;;;;4902841;29;20438;-81
2023/04/03 10:35:17;;;;;;;3.63;1.80;;;9.80;1.00;;;;;;4909520;29;20994;-80
2023/04/03 10:37:59;;;;;;;2.27;1.60;;;10.00;1.00;;;;;;4907643;29;20535;-79
2023/04/03 10:40:34;;;;;;;2.20;1.30;;;9.90;1.00;;;;;;4908753;29;20506;-79
2023/04/03 10:43:10;;;;;;;5.33;2.03;;;9.80;1.00;;;;;;4910217;29;20851;-78
2023/04/03 10:45:54;;;;;;;4.00;2.30;;;9.60;1.00;;;;;;4907030;29;20470;-77
2023/04/03 10:48:34;;;;;;;4.07;1.67;;;9.50;1.00;;;;;;4896184;29;21208;-78
2023/04/03 10:51:10;;;;;;;4.10;1.73;;;9.40;1.00;;;;;;4908940;29;20478;-78
2023/04/03 10:53:43;;;;;;;4.07;1.80;;;9.30;1.00;;;;;;4909528;28;21202;-78
2023/04/03 10:56:18;;;;;;;7.40;2.63;;;9.60;1.00;;;;;;4904276;29;22050;-77
2023/04/03 10:58:54;;;;;;;2.07;1.40;;;10.10;1.00;;;;;;4905375;29;20464;-77
2023/04/03 11:01:24;;;;;;;7.10;1.87;;;10.50;1.00;;;;;;4905854;29;20474;-77
2023/04/03 11:03:56;;;;;;;4.80;1.70;;;10.40;1.00;;;;;;4901484;29;21174;-76
2023/04/03 11:06:26;;;;;;;3.00;1.80;;;10.30;1.00;;;;;;4902087;29;20446;-76
2023/04/03 11:08:58;;;;;;;2.87;1.57;;;10.00;1.00;;;;;;4909413;29;21384;-78
2023/04/03 11:11:28;;;;;;;4.03;1.70;;;9.50;1.00;;;;;;4909017;29;20478;-75
2023/04/03 11:14:02;;;;;;;4.70;2.60;;;9.30;1.00;;;;;;4909436;29;20454;-78
2023/04/03 11:16:34;;;;;;;1.47;1.20;;;9.40;1.00;;;;;;4907724;29;20472;-78
2023/04/03 11:19:06;;;;;;;3.60;1.97;;;9.60;1.00;;;;;;4909683;29;20503;-77
2023/04/03 11:21:36;;;;;;;2.23;1.57;;;9.50;1.00;;;;;;4909575;29;20471;-77
2023/04/03 11:24:08;;;;;;;3.53;2.00;;;9.50;1.00;;;;;;4908022;29;20922;-78
2023/04/03 11:26:41;;;;;;;4.10;1.70;;;10.10;1.00;;;;;;4902620;29;21290;-77
2023/04/03 11:29:15;;;;;;;2.13;1.50;;;10.50;1.00;;;;;;4909540;29;20590;-78
2023/04/03 11:32:03;;;;;;;5.07;2.00;;;10.60;1.00;;;;;;4903850;29;20446;-76
2023/04/03 11:34:39;;;;;;;2.97;1.80;;;10.20;1.00;;;;;;4909210;29;20583;-76
2023/04/03 11:37:16;;;;;;;3.70;1.97;;;10.00;1.00;;;;;;4907876;29;21304;-78
2023/04/03 11:39:51;;;;;;;5.67;1.90;;;10.10;1.00;;;;;;4907486;29;20500;-76
2023/04/03 11:42:27;;;;;;;4.93;2.00;;;9.90;1.00;;;;;;4906304;29;20474;-77
2023/04/03 11:45:23;;;;;;;3.13;2.10;;;9.80;1.00;;;;;;4907268;29;20467;-79
2023/04/03 11:47:51;;;;;;;1.63;1.30;;;9.50;1.00;;;;;;4908013;29;20479;-78
2023/04/03 11:50:41;;;;;;;2.50;1.50;;;9.40;1.00;;;;;;4906853;29;20506;-76
2023/04/03 11:53:34;;;;;;;2.60;2.20;;;9.30;1.00;;;;;;4905387;29;20574;-78
2023/04/03 11:56:05;;;;;;;4.43;1.77;;;9.60;1.00;;;;;;4903869;29;21209;-76
2023/04/03 11:58:34;;;;;;;7.57;2.97;;;9.80;1.00;;;;;;4905026;29;20470;-78
2023/04/03 12:01:12;;;;;;;2.70;1.90;;;9.90;1.00;;;;;;4908415;29;20556;-77
2023/04/03 12:03:59;;;;;;;3.03;2.20;;;10.10;1.00;;;;;;4908859;29;20570;-78
2023/04/03 12:07:02;;;;;;;5.47;2.10;;;10.00;1.00;;;;;;4904153;29;20467;-77
2023/04/03 12:10:02;;;;;;;2.37;1.80;;;10.00;1.00;;;;;;4889065;29;20624;-76
2023/04/03 12:12:41;;;;;;;4.40;1.67;;;9.90;1.00;;;;;;4901899;29;20439;-76
2023/04/03 12:15:40;;;;;;;3.97;1.80;;;9.90;1.00;;;;;;4908649;29;20490;-78
2023/04/03 12:18:41;;;;;;;3.47;1.40;;;10.00;1.00;;;;;;4902841;29;20546;-82
2023/04/03 12:21:13;;;;;;;3.20;2.27;;;10.70;1.00;;;;;;4907722;29;20493;-82
2023/04/03 12:24:03;;;;;;;5.73;2.23;;;11.50;1.00;;;;;;4907438;29;20511;-78
2023/04/03 12:26:44;;;;;;;4.53;2.00;;;12.30;1.00;;;;;;4902695;29;21252;-79
2023/04/03 12:29:19;;;;;;;2.73;1.87;;;12.80;1.00;;;;;;4898845;29;21424;-78
2023/04/03 12:31:56;;;;;;;2.10;1.40;;;13.00;1.00;;;;;;4895919;29;21077;-79
2023/04/03 12:34:50;;;;;;;2.40;1.60;;;12.90;1.00;;;;;;4906505;29;20485;-77
2023/04/03 12:37:39;;;;;;;3.07;1.93;;;13.60;1.00;;;;;;4900317;29;20488;-78
2023/04/03 12:40:18;;;;;;;4.20;2.30;;;16.40;1.00;;;;;;4911489;29;20462;-79
2023/04/03 12:43:05;;;;;;;3.27;1.80;;;17.00;1.00;;;;;;4909348;29;20518;-80
2023/04/03 12:45:42;;;;;;;3.03;1.70;;;16.20;1.00;;;;;;4910762;29;20464;-79
2023/04/03 12:48:19;;;;;;;4.37;1.40;;;14.90;1.00;;;;;;4912086;29;20489;-79
2023/04/03 12:50:51;;;;;;;6.60;2.37;;;13.90;1.00;;;;;;4896624;29;20992;-78
2023/04/03 12:53:25;;;;;;;2.97;2.10;;;13.00;1.00;;;;;;4910206;29;20499;-78
2023/04/03 12:56:15;;;;;;;3.33;1.40;;;12.10;1.00;;;;;;4896516;29;20467;-80
2023/04/03 12:58:42;;;;;;;1.90;1.30;;;11.70;1.00;;;;;;4897324;29;20943;-80
2023/04/03 13:01:31;;;;;;;6.63;2.30;;;11.40;1.00;;;;;;4887178;28;20503;-80
2023/04/03 13:04:01;;;;;;;5.10;1.70;;;11.60;1.00;;;;;;4889638;28;20567;-79
2023/04/03 13:06:48;;;;;;;3.00;1.30;;;11.50;1.00;;;;;;4904123;29;20463;-81
2023/04/03 13:09:22;;;;;;;3.03;2.00;;;11.60;1.00;;;;;;4904846;29;20490;-80
2023/04/03 13:11:53;;;;;;;4.20;1.73;;;11.80;1.00;;;;;;4897493;29;20447;-78
2023/04/03 13:14:22;;;;;;;2.90;1.50;;;12.10;1.00;;;;;;4902249;29;20522;-80
2023/04/03 13:16:57;;;;;;;2.70;1.47;;;11.70;1.00;;;;;;4907561;29;21249;-76
2023/04/03 13:19:26;;;;;;;4.63;3.67;;;11.40;1.00;;;;;;4906431;29;20474;-76
2023/04/03 13:22:03;;;;;;;2.13;1.47;;;11.50;1.00;;;;;;4906214;29;20526;-77
2023/04/03 13:24:33;;;;;;;2.50;1.50;;;11.50;1.00;;;;;;4893955;29;20465;-77
2023/04/03 13:27:03;;;;;;;3.30;1.97;;;11.50;1.00;;;;;;4906789;29;20534;-77